Time;durP1;ratioP1;P1;durP2;ratioP2;P2;SDS_P1;SDS_P2;PMS_P1;PMS_P2;Temp;Humidity;BMP_temperature;BMP_pressure;BME280_temperature;BME280_humidity;BME280_pressure;Samples;Min_cycle;Max_cycle;Signal;HPM_P1;HPM_P2
2021/12/06 00:01:17;;;;;;;25.45;11.07;;;2.80;99.90;;;;;;4990900;28;20112;-92
2021/12/06 00:03:56;;;;;;;23.45;11.73;;;2.80;99.90;;;;;;4988021;28;20061;-91
2021/12/06 00:06:24;;;;;;;24.40;11.30;;;2.80;99.90;;;;;;5007773;28;20099;-92
2021/12/06 00:08:51;;;;;;;27.80;13.43;;;2.70;99.90;;;;;;4985163;28;20099;-95
2021/12/06 00:11:17;;;;;;;23.77;11.57;;;2.70;99.90;;;;;;4987866;28;20081;-93
2021/12/06 00:13:46;;;;;;;30.85;12.68;;;2.70;99.90;;;;;;4989682;28;20038;-91
2021/12/06 00:16:17;;;;;;;30.75;13.23;;;2.70;99.90;;;;;;4987080;28;20046;-91
2021/12/06 00:18:44;;;;;;;31.80;13.20;;;2.70;99.90;;;;;;5016306;28;20116;-94
2021/12/06 00:21:11;;;;;;;28.40;13.52;;;2.60;99.90;;;;;;4992248;28;20095;-93
2021/12/06 00:23:37;;;;;;;26.13;12.05;;;2.60;99.90;;;;;;5007894;28;20393;-93
2021/12/06 00:26:04;;;;;;;30.02;13.48;;;2.70;99.90;;;;;;5006659;28;20116;-93
2021/12/06 00:28:31;;;;;;;33.10;13.05;;;2.60;99.90;;;;;;5004180;28;20060;-91
2021/12/06 00:30:56;;;;;;;29.45;13.55;;;2.60;99.90;;;;;;5005027;28;20072;-93
2021/12/06 00:33:24;;;;;;;26.67;13.15;;;2.60;99.90;;;;;;4991717;28;20124;-93
2021/12/06 00:35:50;;;;;;;28.13;12.82;;;2.60;99.90;;;;;;4988850;28;20903;-92
2021/12/06 00:38:16;;;;;;;29.55;13.55;;;2.70;99.90;;;;;;4988511;28;20042;-94
2021/12/06 00:40:46;;;;;;;30.27;13.23;;;2.60;99.90;;;;;;4986165;28;20084;-92
2021/12/06 00:43:12;;;;;;;29.27;13.55;;;2.60;99.90;;;;;;5021235;28;20056;-91
2021/12/06 00:45:38;;;;;;;32.25;14.35;;;2.60;99.90;;;;;;5008888;28;20053;-92
2021/12/06 00:48:04;;;;;;;30.38;12.75;;;2.60;99.90;;;;;;4987935;28;20049;-91
2021/12/06 00:50:35;;;;;;;27.52;12.88;;;2.70;99.90;;;;;;4989023;28;20053;-91
2021/12/06 00:53:01;;;;;;;33.25;12.98;;;2.70;99.90;;;;;;4987514;28;20061;-90
2021/12/06 00:55:27;;;;;;;25.58;12.13;;;2.60;99.90;;;;;;4985325;28;20046;-95
2021/12/06 00:57:54;;;;;;;26.98;11.95;;;2.70;99.90;;;;;;4987893;28;20626;-90
2021/12/06 01:00:26;;;;;;;28.98;13.00;;;2.60;99.90;;;;;;4990043;28;20481;-92
2021/12/06 01:02:53;;;;;;;27.73;12.50;;;2.60;99.90;;;;;;5012412;28;20049;-94
2021/12/06 01:05:22;;;;;;;29.73;13.13;;;2.60;99.90;;;;;;4985085;28;20038;-92
2021/12/06 01:07:48;;;;;;;36.72;13.98;;;2.80;99.90;;;;;;5006360;28;20041;-91
2021/12/06 01:10:14;;;;;;;27.23;12.70;;;2.80;99.90;;;;;;5010758;28;20045;-92
2021/12/06 01:12:40;;;;;;;28.63;12.80;;;2.70;99.90;;;;;;4993984;28;20067;-92
2021/12/06 01:15:07;;;;;;;28.75;13.30;;;2.70;99.90;;;;;;4989153;28;20402;-91
2021/12/06 01:17:33;;;;;;;25.67;10.80;;;2.70;99.90;;;;;;5010112;28;20059;-92
2021/12/06 01:19:59;;;;;;;28.33;13.13;;;2.60;99.90;;;;;;5007036;28;20045;-93
2021/12/06 01:22:38;;;;;;;32.10;13.75;;;2.70;99.90;;;;;;4993212;28;20048;-91
2021/12/06 01:25:15;;;;;;;30.98;13.10;;;2.70;99.90;;;;;;5008494;28;20054;-92
2021/12/06 01:30:29;;;;;;;29.58;12.23;;;2.70;99.90;;;;;;5006897;28;20310;-91
2021/12/06 01:33:16;;;;;;;28.23;12.50;;;2.70;99.90;;;;;;4992267;28;20053;-91
2021/12/06 01:41:11;;;;;;;27.75;12.73;;;2.70;99.90;;;;;;5010452;28;20436;-92
2021/12/06 01:43:37;;;;;;;29.08;12.93;;;2.60;99.90;;;;;;4996205;28;20132;-91
2021/12/06 01:46:03;;;;;;;37.17;14.48;;;2.70;99.90;;;;;;5041851;28;20049;-90
2021/12/06 01:48:29;;;;;;;31.52;13.10;;;2.70;99.90;;;;;;5007559;28;20049;-91
2021/12/06 01:50:54;;;;;;;31.67;13.43;;;2.70;99.90;;;;;;4990058;28;20629;-91
2021/12/06 01:53:20;;;;;;;32.30;15.23;;;2.70;99.90;;;;;;5005420;28;20124;-91
2021/12/06 01:55:46;;;;;;;30.92;13.30;;;2.70;99.90;;;;;;4989319;28;20048;-91
2021/12/06 01:58:12;;;;;;;31.35;13.00;;;2.70;99.90;;;;;;4992376;28;20048;-91
2021/12/06 02:00:48;;;;;;;29.60;12.88;;;2.60;99.90;;;;;;4992151;28;20041;-90
2021/12/06 02:03:14;;;;;;;32.85;14.65;;;2.80;99.90;;;;;;4991992;28;20041;-91
2021/12/06 02:05:42;;;;;;;30.65;12.80;;;2.70;99.90;;;;;;4992416;28;20033;-92
2021/12/06 02:08:09;;;;;;;28.02;13.02;;;2.80;99.90;;;;;;5008344;28;20104;-92
2021/12/06 02:10:36;;;;;;;32.78;14.02;;;2.70;99.90;;;;;;5006790;28;20095;-91
2021/12/06 02:13:03;;;;;;;34.40;15.88;;;2.70;99.90;;;;;;4990548;28;20055;-90
2021/12/06 02:15:42;;;;;;;28.92;13.40;;;2.70;99.90;;;;;;5005244;28;20057;-91
2021/12/06 02:19:03;;;;;;;29.58;12.65;;;2.80;99.90;;;;;;4989785;28;20095;-91
2021/12/06 02:21:30;;;;;;;29.15;13.30;;;2.80;99.90;;;;;;5002521;28;20033;-91
2021/12/06 02:23:58;;;;;;;34.58;14.25;;;2.80;99.90;;;;;;5005823;28;20045;-91
2021/12/06 02:26:24;;;;;;;28.60;12.73;;;2.80;99.90;;;;;;5007767;28;20048;-92
2021/12/06 02:28:50;;;;;;;32.38;14.07;;;2.80;99.90;;;;;;5001628;28;20120;-91
2021/12/06 02:31:19;;;;;;;31.85;13.65;;;2.80;99.90;;;;;;4992863;28;20112;-92
2021/12/06 02:33:48;;;;;;;29.60;13.55;;;2.80;99.90;;;;;;4988886;28;20485;-91
2021/12/06 02:36:15;;;;;;;30.55;13.45;;;2.80;99.90;;;;;;5007901;28;20045;-91
2021/12/06 02:38:41;;;;;;;33.33;14.40;;;2.80;99.90;;;;;;4992243;28;20045;-90
2021/12/06 02:41:08;;;;;;;28.67;13.73;;;2.80;99.90;;;;;;4989160;28;20095;-91
2021/12/06 02:43:35;;;;;;;31.00;15.07;;;2.80;99.90;;;;;;4990008;28;21608;-93
2021/12/06 02:46:01;;;;;;;30.88;14.40;;;2.80;99.90;;;;;;4999250;28;20037;-90
2021/12/06 02:48:26;;;;;;;32.45;15.13;;;2.80;99.90;;;;;;4991954;28;20528;-91
2021/12/06 02:50:55;;;;;;;31.17;13.40;;;2.80;99.90;;;;;;4987958;28;20874;-90
2021/12/06 02:53:23;;;;;;;32.53;12.38;;;2.80;99.90;;;;;;4988125;28;20128;-90
2021/12/06 02:55:53;;;;;;;32.40;14.40;;;2.80;99.90;;;;;;4991550;28;20041;-93
2021/12/06 03:01:13;;;;;;;31.65;13.48;;;2.80;99.90;;;;;;5004842;28;20045;-90
2021/12/06 03:03:39;;;;;;;28.05;11.88;;;2.80;99.90;;;;;;4988642;28;20049;-90
2021/12/06 03:06:05;;;;;;;27.00;11.38;;;2.80;99.90;;;;;;5036065;28;20045;-90
2021/12/06 03:08:47;;;;;;;52.38;36.60;;;2.90;99.90;;;;;;4986893;28;20076;-91
2021/12/06 03:11:17;;;;;;;28.08;11.85;;;3.00;99.90;;;;;;4992061;28;20057;-91
2021/12/06 03:13:43;;;;;;;54.65;37.28;;;3.00;99.90;;;;;;4990191;28;20053;-94
2021/12/06 03:16:09;;;;;;;27.23;11.07;;;3.00;99.90;;;;;;5003806;28;20081;-91
2021/12/06 03:18:35;;;;;;;34.35;14.65;;;3.00;99.90;;;;;;4999907;28;20047;-90
2021/12/06 03:21:01;;;;;;;32.20;12.50;;;2.90;99.90;;;;;;5008656;28;20103;-91
2021/12/06 03:23:27;;;;;;;35.05;14.35;;;3.00;99.90;;;;;;5004723;28;20041;-92
2021/12/06 03:25:53;;;;;;;53.90;36.22;;;2.90;99.90;;;;;;5005586;28;20428;-90
2021/12/06 03:28:18;;;;;;;28.50;12.88;;;3.00;99.90;;;;;;5003545;28;20053;-91
2021/12/06 03:30:45;;;;;;;29.60;11.93;;;3.00;99.90;;;;;;4985027;28;20046;-91
2021/12/06 03:33:11;;;;;;;29.45;13.00;;;2.90;99.90;;;;;;5004861;28;20458;-91
2021/12/06 03:35:37;;;;;;;32.13;13.02;;;2.90;99.90;;;;;;4985267;28;20144;-90
2021/12/06 03:38:03;;;;;;;32.10;12.65;;;2.90;99.90;;;;;;4988566;28;20379;-90
2021/12/06 03:40:28;;;;;;;33.10;15.18;;;2.90;99.90;;;;;;5005559;28;20041;-90
2021/12/06 03:42:54;;;;;;;33.10;15.05;;;2.90;99.90;;;;;;5004232;28;20325;-92
2021/12/06 03:45:19;;;;;;;30.63;13.15;;;2.90;99.90;;;;;;4991215;28;20401;-91
2021/12/06 03:47:45;;;;;;;27.17;13.38;;;2.90;99.90;;;;;;4988663;28;20042;-91
2021/12/06 03:50:12;;;;;;;34.20;14.82;;;2.90;99.90;;;;;;4990716;28;20049;-90
2021/12/06 03:52:37;;;;;;;33.85;13.38;;;3.00;99.90;;;;;;4990042;28;20449;-91
2021/12/06 03:55:05;;;;;;;30.95;14.15;;;3.00;99.90;;;;;;4985938;28;20229;-91
2021/12/06 03:57:32;;;;;;;30.60;13.82;;;3.00;99.90;;;;;;4984907;28;20046;-92
2021/12/06 03:59:58;;;;;;;33.13;14.77;;;2.90;99.90;;;;;;5006788;28;20057;-91
2021/12/06 04:02:27;;;;;;;34.75;13.88;;;3.00;99.90;;;;;;4990536;28;20476;-91
2021/12/06 04:04:53;;;;;;;32.60;13.15;;;3.00;99.90;;;;;;4997249;28;20046;-90
2021/12/06 04:07:20;;;;;;;32.60;14.30;;;3.00;99.90;;;;;;5002535;28;20040;-90
2021/12/06 04:09:46;;;;;;;30.73;12.73;;;2.90;99.90;;;;;;4988958;28;20132;-90
2021/12/06 04:12:12;;;;;;;33.38;14.05;;;3.00;99.90;;;;;;5008476;28;20474;-90
2021/12/06 04:14:39;;;;;;;37.17;15.82;;;3.00;99.90;;;;;;5006240;28;20048;-90
2021/12/06 04:17:05;;;;;;;35.10;16.30;;;3.00;99.90;;;;;;5003085;28;20081;-91
2021/12/06 04:19:31;;;;;;;36.50;14.45;;;2.90;99.90;;;;;;4998854;28;20100;-91
2021/12/06 04:21:57;;;;;;;32.40;12.70;;;3.00;99.90;;;;;;5004121;28;20041;-92
2021/12/06 04:24:23;;;;;;;29.80;12.50;;;3.00;99.90;;;;;;4999220;28;20661;-90
2021/12/06 04:26:49;;;;;;;34.10;13.35;;;3.00;99.90;;;;;;5003502;28;20060;-90
2021/12/06 04:29:16;;;;;;;38.13;14.50;;;3.00;99.90;;;;;;5037723;28;20084;-90
2021/12/06 04:31:46;;;;;;;32.38;13.43;;;3.00;99.90;;;;;;4999383;28;20061;-91
2021/12/06 04:34:12;;;;;;;35.60;15.18;;;3.00;99.90;;;;;;4988917;28;20458;-90
2021/12/06 04:36:40;;;;;;;37.13;14.05;;;2.90;99.90;;;;;;5003030;28;20136;-92
2021/12/06 04:39:08;;;;;;;25.38;10.05;;;3.00;99.90;;;;;;5005302;28;20104;-91
2021/12/06 04:41:34;;;;;;;29.10;13.30;;;3.00;99.90;;;;;;5004811;28;20053;-89
2021/12/06 04:44:00;;;;;;;34.85;14.73;;;3.20;99.90;;;;;;5010592;28;20344;-90
2021/12/06 04:46:26;;;;;;;38.83;15.38;;;3.00;99.90;;;;;;5006426;28;20046;-91
2021/12/06 04:48:51;;;;;;;31.52;13.13;;;3.00;99.90;;;;;;5013805;28;20034;-90
2021/12/06 04:51:17;;;;;;;56.17;35.03;;;3.00;99.90;;;;;;4994781;28;20418;-91
2021/12/06 04:53:43;;;;;;;26.90;11.50;;;3.10;99.90;;;;;;4995795;28;20041;-90
2021/12/06 04:56:31;;;;;;;29.40;13.27;;;3.00;99.90;;;;;;5009429;28;20041;-91
2021/12/06 04:58:56;;;;;;;29.35;12.25;;;3.00;99.90;;;;;;5009202;28;20033;-89
2021/12/06 05:01:28;;;;;;;34.60;13.30;;;3.00;99.90;;;;;;5007297;28;20375;-91
2021/12/06 05:03:57;;;;;;;26.40;11.23;;;3.00;99.90;;;;;;4991034;28;20049;-92
2021/12/06 05:06:27;;;;;;;28.02;13.55;;;3.00;99.90;;;;;;5010368;28;20469;-90
2021/12/06 05:08:56;;;;;;;25.42;11.27;;;3.00;99.90;;;;;;5035851;28;20037;-91
2021/12/06 05:11:24;;;;;;;30.77;12.15;;;3.10;99.90;;;;;;4988045;28;20437;-91
2021/12/06 05:13:52;;;;;;;32.80;14.07;;;3.10;99.90;;;;;;5008140;28;20041;-91
2021/12/06 05:16:18;;;;;;;27.80;11.70;;;3.00;99.90;;;;;;4990105;28;20045;-91
2021/12/06 05:18:45;;;;;;;28.05;12.23;;;3.00;99.90;;;;;;4987500;28;20041;-92
2021/12/06 05:21:11;;;;;;;34.65;14.55;;;3.00;99.90;;;;;;5005311;28;20049;-91
2021/12/06 05:23:37;;;;;;;39.42;13.50;;;3.10;99.90;;;;;;5011201;28;20051;-91
2021/12/06 05:26:03;;;;;;;40.13;14.43;;;3.00;99.90;;;;;;5004210;28;20026;-91
2021/12/06 05:28:32;;;;;;;32.40;13.35;;;3.00;99.90;;;;;;5009857;28;20041;-90
2021/12/06 05:30:58;;;;;;;65.22;39.13;;;3.10;99.90;;;;;;5004178;28;20050;-90
2021/12/06 05:33:31;;;;;;;37.05;13.05;;;3.10;99.90;;;;;;5008462;28;20048;-90
2021/12/06 05:36:00;;;;;;;29.20;12.07;;;3.00;99.90;;;;;;4992065;28;20061;-91
2021/12/06 05:38:28;;;;;;;35.92;13.68;;;3.10;99.90;;;;;;4994091;28;20056;-91
2021/12/06 05:40:54;;;;;;;40.78;14.00;;;3.00;99.90;;;;;;5008096;28;20346;-90
2021/12/06 05:43:20;;;;;;;32.47;13.85;;;3.10;99.90;;;;;;4993239;28;20041;-89
2021/12/06 05:45:46;;;;;;;29.67;11.25;;;3.00;99.90;;;;;;5009884;28;20045;-90
2021/12/06 05:48:12;;;;;;;36.53;15.23;;;3.00;99.90;;;;;;5005469;28;20145;-89
2021/12/06 05:50:37;;;;;;;39.88;14.73;;;3.10;99.90;;;;;;5005150;28;20135;-92
2021/12/06 05:53:03;;;;;;;37.45;14.80;;;3.10;99.90;;;;;;5008060;28;20128;-90
2021/12/06 05:55:29;;;;;;;39.05;13.80;;;3.00;99.90;;;;;;5005062;28;20132;-90
2021/12/06 05:58:01;;;;;;;38.28;14.77;;;3.00;99.90;;;;;;5001164;28;20050;-90
2021/12/06 06:00:30;;;;;;;37.80;13.40;;;3.00;99.90;;;;;;5008666;28;20065;-91
2021/12/06 06:02:57;;;;;;;37.83;14.93;;;3.00;99.90;;;;;;5001973;28;20052;-90
2021/12/06 06:05:23;;;;;;;74.30;41.17;;;3.00;99.90;;;;;;5004913;28;20038;-91
2021/12/06 06:07:49;;;;;;;33.33;13.80;;;3.10;99.90;;;;;;5005615;28;20056;-91
2021/12/06 06:10:16;;;;;;;29.42;11.77;;;3.10;99.90;;;;;;5005076;28;20057;-91
2021/12/06 06:12:42;;;;;;;33.53;13.23;;;3.10;99.90;;;;;;5008082;28;20092;-90
2021/12/06 06:15:09;;;;;;;37.97;12.73;;;3.10;99.90;;;;;;4991783;28;20115;-90
2021/12/06 06:17:43;;;;;;;29.30;12.35;;;3.10;99.90;;;;;;4988957;28;20084;-91
2021/12/06 06:20:20;;;;;;;31.63;13.23;;;3.10;99.90;;;;;;5007697;28;20060;-91
2021/12/06 06:22:46;;;;;;;37.20;13.40;;;3.10;99.90;;;;;;4986804;28;20427;-90
2021/12/06 06:25:12;;;;;;;39.47;13.88;;;3.10;99.90;;;;;;4987525;28;20129;-90
2021/12/06 06:27:38;;;;;;;32.38;13.02;;;3.10;99.90;;;;;;5002747;28;20045;-89
2021/12/06 06:30:05;;;;;;;37.53;15.10;;;3.10;99.90;;;;;;5025244;28;20065;-91
2021/12/06 06:32:30;;;;;;;37.60;14.40;;;3.10;99.90;;;;;;5004500;28;20045;-90
2021/12/06 06:34:56;;;;;;;37.90;14.93;;;3.10;99.90;;;;;;5016341;28;20088;-90
2021/12/06 06:37:22;;;;;;;34.72;13.43;;;3.10;99.90;;;;;;4989239;28;20041;-90
2021/12/06 06:39:47;;;;;;;37.53;14.73;;;3.10;99.90;;;;;;5006051;28;20053;-91
2021/12/06 06:42:13;;;;;;;34.42;14.07;;;3.10;99.90;;;;;;5013404;28;20037;-90
2021/12/06 06:44:39;;;;;;;29.88;12.38;;;3.10;99.90;;;;;;5033998;28;20049;-90
2021/12/06 06:47:04;;;;;;;30.15;12.35;;;3.10;99.90;;;;;;4989347;28;20411;-89
2021/12/06 06:49:31;;;;;;;35.55;15.23;;;3.10;99.90;;;;;;4995088;28;20442;-90
2021/12/06 06:51:58;;;;;;;39.08;15.63;;;3.10;99.90;;;;;;4991501;28;20050;-90
2021/12/06 06:54:24;;;;;;;36.67;14.25;;;3.10;99.90;;;;;;5006085;28;20372;-92
2021/12/06 06:56:51;;;;;;;31.23;13.52;;;3.10;99.90;;;;;;5005582;28;20058;-93
2021/12/06 06:59:16;;;;;;;31.50;12.73;;;3.10;99.90;;;;;;5003028;28;20569;-91
2021/12/06 07:01:44;;;;;;;31.23;12.57;;;3.10;99.90;;;;;;5007719;28;20387;-89
2021/12/06 07:04:10;;;;;;;32.70;13.57;;;3.10;99.90;;;;;;4986935;28;20416;-91
2021/12/06 07:06:35;;;;;;;37.58;14.27;;;3.10;99.90;;;;;;4991428;28;20136;-92
2021/12/06 07:09:02;;;;;;;41.25;15.77;;;3.20;99.90;;;;;;5003194;28;20378;-91
2021/12/06 07:11:28;;;;;;;35.50;13.63;;;3.10;99.90;;;;;;4991023;28;20041;-92
2021/12/06 07:13:55;;;;;;;64.15;40.05;;;3.10;99.90;;;;;;4984206;28;20038;-90
2021/12/06 07:16:21;;;;;;;28.63;12.68;;;3.10;99.90;;;;;;4989519;28;20417;-90
2021/12/06 07:18:46;;;;;;;38.63;13.70;;;3.10;99.90;;;;;;4988484;28;20049;-90
2021/12/06 07:21:14;;;;;;;33.55;12.55;;;3.10;99.90;;;;;;4992148;28;20033;-90
2021/12/06 07:23:42;;;;;;;40.70;14.50;;;3.00;99.90;;;;;;5002476;28;20554;-91
2021/12/06 07:26:18;;;;;;;63.70;37.65;;;3.00;99.90;;;;;;5176187;27;20125;-90
2021/12/06 07:28:46;;;;;;;38.88;15.40;;;3.10;99.90;;;;;;5145715;27;20042;-91
2021/12/06 07:31:14;;;;;;;32.30;12.73;;;3.10;99.90;;;;;;5125246;27;20042;-92
2021/12/06 07:33:42;;;;;;;31.20;12.88;;;3.00;99.90;;;;;;5123641;27;20382;-90
2021/12/06 07:36:09;;;;;;;37.00;14.27;;;3.00;99.90;;;;;;5122978;27;20095;-91
2021/12/06 07:38:37;;;;;;;33.92;13.57;;;2.90;99.90;;;;;;5143229;27;20091;-92
2021/12/06 07:41:06;;;;;;;34.05;12.88;;;3.00;99.90;;;;;;5130528;27;20026;-91
2021/12/06 07:43:33;;;;;;;32.92;13.48;;;3.00;99.90;;;;;;5124281;27;20180;-91
2021/12/06 07:45:58;;;;;;;35.17;13.68;;;3.00;99.90;;;;;;5124481;27;20083;-90
2021/12/06 07:48:24;;;;;;;36.72;14.50;;;3.00;99.90;;;;;;5125369;27;20035;-91
2021/12/06 07:50:49;;;;;;;29.35;11.73;;;3.00;99.90;;;;;;5143817;27;20043;-92
2021/12/06 07:53:15;;;;;;;29.60;11.85;;;3.00;99.90;;;;;;5144203;27;20043;-91
2021/12/06 07:55:41;;;;;;;31.67;12.20;;;3.00;99.90;;;;;;5121528;27;20517;-91
2021/12/06 07:58:08;;;;;;;33.25;13.57;;;3.00;99.90;;;;;;5121440;27;20107;-89
2021/12/06 08:00:40;;;;;;;31.17;11.07;;;3.00;99.90;;;;;;5139303;27;20083;-95
2021/12/06 08:03:08;;;;;;;31.92;12.98;;;3.00;99.90;;;;;;5124420;27;20054;-94
2021/12/06 08:05:36;;;;;;;34.35;13.27;;;3.00;99.90;;;;;;5142840;27;20122;-93
2021/12/06 08:08:16;;;;;;;51.55;33.55;;;3.00;99.90;;;;;;5120109;27;20076;-95
2021/12/06 08:10:46;;;;;;;29.77;12.18;;;3.00;99.90;;;;;;5140577;27;20046;-91
2021/12/06 08:13:18;;;;;;;26.52;11.82;;;3.10;99.90;;;;;;5119916;27;20043;-93
2021/12/06 08:15:44;;;;;;;33.75;12.57;;;3.00;99.90;;;;;;5143897;27;20041;-91
2021/12/06 08:18:10;;;;;;;32.70;13.38;;;3.00;99.90;;;;;;5121000;27;20051;-92
2021/12/06 08:20:37;;;;;;;37.58;13.20;;;3.00;99.90;;;;;;5142378;27;20308;-90
2021/12/06 08:23:04;;;;;;;32.67;13.05;;;3.00;99.90;;;;;;5121302;27;20073;-92
2021/12/06 08:25:30;;;;;;;27.25;11.00;;;3.00;99.90;;;;;;5124945;27;20059;-91
2021/12/06 08:27:56;;;;;;;44.42;29.83;;;3.00;99.90;;;;;;5129183;27;20043;-90
2021/12/06 08:30:23;;;;;;;26.77;11.20;;;3.10;99.90;;;;;;5137790;27;20126;-91
2021/12/06 08:32:54;;;;;;;25.67;10.85;;;3.00;99.90;;;;;;5136430;27;20038;-91
2021/12/06 08:35:20;;;;;;;30.08;11.10;;;2.90;99.90;;;;;;5114354;27;20184;-91
2021/12/06 08:37:46;;;;;;;25.15;10.70;;;3.00;99.90;;;;;;5121101;27;20126;-90
2021/12/06 08:40:15;;;;;;;29.58;10.40;;;2.90;99.90;;;;;;5119548;27;20043;-90
2021/12/06 08:42:41;;;;;;;26.48;12.27;;;2.90;99.90;;;;;;5101111;28;20036;-92
2021/12/06 08:45:08;;;;;;;27.45;12.02;;;2.90;99.90;;;;;;5120362;27;20089;-91
2021/12/06 08:47:34;;;;;;;31.27;11.45;;;2.90;99.90;;;;;;5108177;28;20038;-92
2021/12/06 08:50:00;;;;;;;32.97;12.50;;;2.90;99.90;;;;;;5126483;27;20491;-91
2021/12/06 08:52:25;;;;;;;32.15;13.90;;;2.90;99.90;;;;;;5124528;27;20042;-92
2021/12/06 08:54:51;;;;;;;38.67;15.43;;;2.90;99.90;;;;;;5120093;27;20046;-91
2021/12/06 08:57:17;;;;;;;41.65;15.00;;;2.90;99.90;;;;;;5134359;27;20095;-89
2021/12/06 08:59:46;;;;;;;43.60;15.93;;;2.90;99.90;;;;;;5109925;27;20395;-92
2021/12/06 09:02:13;;;;;;;43.28;16.50;;;2.90;99.90;;;;;;5126273;27;20391;-88
2021/12/06 09:04:39;;;;;;;40.28;15.18;;;3.00;99.90;;;;;;5104160;27;20103;-89
2021/12/06 09:07:11;;;;;;;41.08;17.60;;;3.00;99.90;;;;;;5124081;27;20066;-89
2021/12/06 09:09:49;;;;;;;44.00;16.67;;;2.90;99.90;;;;;;5109348;27;20050;-89
2021/12/06 09:12:26;;;;;;;49.33;19.15;;;2.90;99.90;;;;;;5117082;27;20043;-89
2021/12/06 09:14:54;;;;;;;48.33;16.95;;;2.90;99.90;;;;;;5103472;27;20050;-89
2021/12/06 09:17:21;;;;;;;47.05;18.65;;;3.00;99.90;;;;;;5107131;27;20079;-88
2021/12/06 09:19:47;;;;;;;48.92;16.98;;;3.00;99.90;;;;;;5108603;27;20054;-89
2021/12/06 09:22:13;;;;;;;54.22;20.20;;;3.00;99.90;;;;;;5104049;27;20035;-89
2021/12/06 09:24:39;;;;;;;48.97;20.17;;;3.10;99.90;;;;;;5123828;27;20096;-89
2021/12/06 09:27:05;;;;;;;48.75;18.70;;;3.10;99.90;;;;;;5105235;27;20039;-89
2021/12/06 09:29:33;;;;;;;43.45;16.67;;;3.10;99.90;;;;;;5126381;27;20047;-89
2021/12/06 09:32:00;;;;;;;74.22;44.33;;;3.10;99.90;;;;;;5114242;27;20118;-89
2021/12/06 09:34:27;;;;;;;40.70;14.52;;;3.20;99.90;;;;;;5120628;27;20058;-89
2021/12/06 09:36:54;;;;;;;40.13;15.65;;;3.30;99.90;;;;;;5098139;27;20522;-90
2021/12/06 09:39:20;;;;;;;36.08;13.13;;;3.20;99.90;;;;;;5113322;27;20055;-88
2021/12/06 09:41:46;;;;;;;38.65;16.38;;;3.20;99.90;;;;;;5124427;27;20499;-89
2021/12/06 09:44:13;;;;;;;40.17;15.10;;;3.20;99.90;;;;;;5101422;27;20042;-88
2021/12/06 09:46:39;;;;;;;35.45;12.80;;;3.20;99.90;;;;;;5102579;27;20130;-87
2021/12/06 09:49:08;;;;;;;29.85;13.32;;;3.30;99.90;;;;;;5098045;27;20651;-88
2021/12/06 09:51:36;;;;;;;34.75;14.27;;;3.30;99.90;;;;;;5120994;27;20435;-89
2021/12/06 09:54:02;;;;;;;30.33;12.93;;;3.30;99.90;;;;;;5101896;27;20032;-89
2021/12/06 09:56:38;;;;;;;30.42;13.10;;;3.40;99.90;;;;;;5105757;27;20041;-89
2021/12/06 09:59:06;;;;;;;33.17;13.70;;;3.40;99.90;;;;;;5103805;28;20054;-90
2021/12/06 10:01:38;;;;;;;27.05;11.10;;;3.40;99.90;;;;;;5100362;27;20123;-90
2021/12/06 10:04:07;;;;;;;29.58;11.82;;;3.40;99.90;;;;;;5102456;27;20071;-90
2021/12/06 10:06:34;;;;;;;29.00;12.60;;;3.40;99.90;;;;;;5114888;27;20422;-90
2021/12/06 10:09:04;;;;;;;26.13;10.70;;;3.50;99.90;;;;;;5114352;27;20043;-90
2021/12/06 10:11:30;;;;;;;27.52;10.70;;;3.50;99.90;;;;;;5117246;27;20451;-89
2021/12/06 10:13:57;;;;;;;38.22;25.10;;;3.50;99.90;;;;;;5124635;27;20047;-90
2021/12/06 10:16:23;;;;;;;26.40;10.23;;;3.60;99.90;;;;;;5119785;27;20043;-91
2021/12/06 10:18:49;;;;;;;23.67;9.52;;;3.70;99.90;;;;;;5117020;27;20048;-91
2021/12/06 10:21:17;;;;;;;20.40;8.10;;;3.60;99.90;;;;;;5120820;27;20092;-93
2021/12/06 10:23:43;;;;;;;22.65;9.18;;;3.60;99.90;;;;;;5117686;27;20039;-90
2021/12/06 10:26:12;;;;;;;22.10;7.95;;;3.60;99.90;;;;;;5101290;28;20056;-93
2021/12/06 10:28:41;;;;;;;22.55;8.43;;;3.60;99.90;;;;;;5085156;28;20039;-89
2021/12/06 10:31:08;;;;;;;21.60;8.63;;;3.60;99.90;;;;;;5097960;28;20085;-90
2021/12/06 10:33:38;;;;;;;32.80;23.67;;;3.60;99.90;;;;;;5086671;28;20434;-89
2021/12/06 10:36:11;;;;;;;20.88;8.75;;;3.70;99.90;;;;;;5072135;28;20468;-89
2021/12/06 10:38:43;;;;;;;19.15;10.02;;;3.70;99.90;;;;;;5098633;28;20081;-89
2021/12/06 10:41:13;;;;;;;29.80;9.80;;;3.70;99.90;;;;;;5079854;28;20584;-88
2021/12/06 10:43:40;;;;;;;20.73;8.25;;;3.70;99.90;;;;;;5078694;28;20075;-90
2021/12/06 10:46:08;;;;;;;25.67;10.50;;;3.70;99.90;;;;;;5103708;28;20047;-87
2021/12/06 10:48:38;;;;;;;26.20;9.75;;;3.70;99.90;;;;;;5100095;28;20048;-90
2021/12/06 10:51:11;;;;;;;26.35;9.95;;;3.70;99.90;;;;;;5101389;28;20043;-89
2021/12/06 10:53:45;;;;;;;25.42;9.82;;;3.70;99.90;;;;;;5096510;28;20190;-90
2021/12/06 10:56:20;;;;;;;23.10;9.30;;;3.70;99.90;;;;;;5081323;28;20032;-87
2021/12/06 10:58:54;;;;;;;35.90;24.67;;;3.70;99.90;;;;;;5098066;28;20139;-87
2021/12/06 11:01:24;;;;;;;23.08;8.70;;;3.80;99.90;;;;;;5102250;28;20499;-88
2021/12/06 11:03:54;;;;;;;24.33;8.18;;;3.80;99.90;;;;;;5081139;28;20037;-88
2021/12/06 11:06:29;;;;;;;24.02;8.38;;;3.80;99.90;;;;;;5097391;28;20055;-89
2021/12/06 11:08:56;;;;;;;22.17;9.25;;;3.70;99.90;;;;;;5077172;28;20122;-87
2021/12/06 11:11:34;;;;;;;28.15;10.23;;;3.80;99.90;;;;;;5099418;28;20063;-88
2021/12/06 11:14:04;;;;;;;27.63;9.80;;;3.70;99.90;;;;;;5085468;28;20146;-91
2021/12/06 11:16:36;;;;;;;24.67;9.18;;;3.80;99.90;;;;;;5080730;28;20493;-88
2021/12/06 11:19:05;;;;;;;35.03;24.15;;;3.80;99.90;;;;;;5096945;28;20059;-88
2021/12/06 11:21:42;;;;;;;24.27;9.10;;;3.90;99.90;;;;;;5098323;28;20048;-88
2021/12/06 11:24:07;;;;;;;25.85;8.95;;;3.90;99.90;;;;;;5077770;27;20070;-88
2021/12/06 11:26:37;;;;;;;21.98;9.23;;;3.90;99.90;;;;;;5100775;27;20502;-88
2021/12/06 11:29:13;;;;;;;34.97;24.77;;;3.80;99.90;;;;;;5099377;27;20402;-87
2021/12/06 11:31:42;;;;;;;25.85;9.15;;;3.90;99.90;;;;;;5103980;27;20051;-90
2021/12/06 11:34:08;;;;;;;25.55;9.80;;;3.90;99.90;;;;;;5104852;27;20035;-88
2021/12/06 11:36:34;;;;;;;25.60;8.45;;;3.90;99.90;;;;;;5113167;27;20394;-88
2021/12/06 11:39:09;;;;;;;23.55;9.40;;;3.90;99.90;;;;;;5096457;27;20043;-87
2021/12/06 11:41:35;;;;;;;33.78;22.98;;;3.90;99.90;;;;;;5099977;28;20472;-88
2021/12/06 11:44:20;;;;;;;21.10;8.80;;;4.00;99.90;;;;;;5099117;27;20034;-88
2021/12/06 11:46:52;;;;;;;19.90;7.55;;;4.00;99.90;;;;;;5094453;27;20511;-87
2021/12/06 11:49:21;;;;;;;33.75;22.25;;;4.00;99.90;;;;;;5116098;27;20047;-87
2021/12/06 11:51:50;;;;;;;20.55;7.78;;;4.20;99.90;;;;;;5117736;27;20039;-88
2021/12/06 11:54:16;;;;;;;23.88;8.43;;;4.20;99.90;;;;;;5108895;27;20046;-88
2021/12/06 11:56:45;;;;;;;21.13;8.35;;;4.20;99.90;;;;;;5123997;27;20091;-88
2021/12/06 11:59:12;;;;;;;29.02;10.43;;;4.10;99.90;;;;;;5096758;27;20051;-87
2021/12/06 12:01:55;;;;;;;23.95;8.68;;;4.10;99.90;;;;;;5107739;27;20047;-87
2021/12/06 12:04:24;;;;;;;21.10;10.18;;;4.10;99.90;;;;;;5122541;27;20163;-89
2021/12/06 12:07:02;;;;;;;24.33;8.38;;;4.20;99.90;;;;;;5098055;27;20047;-88
2021/12/06 12:09:33;;;;;;;35.67;24.13;;;4.20;99.90;;;;;;5100684;27;20035;-87
2021/12/06 12:12:01;;;;;;;21.05;8.73;;;4.20;99.90;;;;;;5120644;27;20047;-86
2021/12/06 12:14:55;;;;;;;24.15;9.63;;;4.20;99.90;;;;;;5107621;27;20050;-88
2021/12/06 12:17:23;;;;;;;21.83;9.48;;;4.20;99.90;;;;;;5120574;27;20111;-88
2021/12/06 12:19:53;;;;;;;22.67;9.13;;;4.10;99.90;;;;;;5102398;27;20126;-88
2021/12/06 12:22:19;;;;;;;44.65;30.92;;;4.10;99.90;;;;;;5105608;27;20035;-88
2021/12/06 12:24:49;;;;;;;23.63;10.10;;;4.10;99.90;;;;;;5124877;27;20415;-87
2021/12/06 12:27:24;;;;;;;26.30;10.40;;;4.10;99.90;;;;;;5120876;27;20035;-87
2021/12/06 12:29:56;;;;;;;25.17;9.35;;;4.10;99.90;;;;;;5122787;27;20415;-89
2021/12/06 12:32:22;;;;;;;21.30;8.95;;;4.10;99.90;;;;;;5112788;27;20030;-89
2021/12/06 12:34:51;;;;;;;41.00;26.90;;;4.00;99.90;;;;;;5120526;27;20069;-89
2021/12/06 12:37:18;;;;;;;25.98;10.43;;;4.10;99.90;;;;;;5096762;27;20039;-87
2021/12/06 12:40:08;;;;;;;26.73;9.95;;;4.10;99.90;;;;;;5119705;27;20043;-89
2021/12/06 12:42:34;;;;;;;29.05;10.27;;;4.00;99.90;;;;;;5099436;27;20051;-88
2021/12/06 12:45:03;;;;;;;26.17;11.35;;;4.00;99.90;;;;;;5111194;27;20115;-88
2021/12/06 12:47:31;;;;;;;26.45;10.82;;;4.00;99.90;;;;;;5121923;27;20049;-89
2021/12/06 12:50:08;;;;;;;31.15;13.43;;;4.00;99.90;;;;;;5104757;27;20046;-87
2021/12/06 12:52:46;;;;;;;51.33;33.08;;;4.00;99.90;;;;;;5096314;27;20089;-88
2021/12/06 12:55:28;;;;;;;33.55;12.85;;;4.10;99.90;;;;;;5121772;27;20134;-88